Daniel Field Augusta US
ICAO: KDNL
IATA: DNL
Category: Medium
Scheduled Services: No

Elevation: 423 ft
TransAlt. 18000 ft.

Airport Communications:
AUGUSTA APP/DEP:126.8
ASOS:135.275
CLNC DEL:128.1
MACON RDO:122.3
CTAF/UNICOM:123.05

KDNL Zoom In..

Runways:

(A) RW 05 length 4002 ft width 100 ft
---- / hdg 50

(B) RW 11 length 3733 ft width 100 ft
---- / hdg 108

(C) RW 23 length 4002 ft width 100 ft
---- / hdg 230

(D) RW 29 length 3733 ft width 100 ft
---- / hdg 288

Location; KDNL
Day. 23 / Time. 14.53 Zulu
* Altimeter: 29.96
* Temperature: 17° c. 62.6°f.
* Wind from: 270° Speed 08 kn with Gusts up to 20 kn.
Dewpoint: 03° c.
Visibility: 10 Statute Miles.
Clouds: Broken 3300 ft.
Clouds: Broken 4800 ft.

KDNL 231453Z AUTO 27008G20KT 10SM BKN033 BKN048 17/03 A2996 RMK AO2 SLP141 T01670033 53027


Wind From 270°
Speed 08 kn.

YouTube Music Video
 
jpsmedia.com for Web Design  worldairports.se 2018   terms of use